sensor_id;sensor_type;location;lat;lon;timestamp;P1;durP1;ratioP1;P2;durP2;ratioP2
48795;SDS011;34607;48.520;-1.330;2023-07-29T06:45:36;3.65;;;2.35;;
48795;SDS011;34607;48.520;-1.330;2023-07-29T06:48:03;2.80;;;2.08;;
48795;SDS011;34607;48.520;-1.330;2023-07-29T06:50:30;5.72;;;2.42;;
48795;SDS011;34607;48.520;-1.330;2023-07-29T06:52:57;5.47;;;2.25;;
48795;SDS011;34607;48.520;-1.330;2023-07-29T06:55:24;5.00;;;2.45;;
48795;SDS011;34607;48.520;-1.330;2023-07-29T06:57:51;4.43;;;2.47;;
48795;SDS011;34607;48.520;-1.330;2023-07-29T07:00:18;5.68;;;2.50;;
48795;SDS011;34607;48.520;-1.330;2023-07-29T07:02:47;3.22;;;2.08;;
48795;SDS011;34607;48.520;-1.330;2023-07-29T07:05:14;5.22;;;2.47;;
48795;SDS011;34607;48.520;-1.330;2023-07-29T07:07:41;2.50;;;2.30;;
48795;SDS011;34607;48.520;-1.330;2023-07-29T07:10:09;4.82;;;2.42;;
48795;SDS011;34607;48.520;-1.330;2023-07-29T07:12:36;3.22;;;2.13;;
48795;SDS011;34607;48.520;-1.330;2023-07-29T07:15:03;6.65;;;2.47;;
48795;SDS011;34607;48.520;-1.330;2023-07-29T07:17:30;4.75;;;2.15;;
48795;SDS011;34607;48.520;-1.330;2023-07-29T07:19:59;5.43;;;2.30;;
48795;SDS011;34607;48.520;-1.330;2023-07-29T07:22:26;3.10;;;2.00;;
48795;SDS011;34607;48.520;-1.330;2023-07-29T07:24:53;6.22;;;2.58;;
48795;SDS011;34607;48.520;-1.330;2023-07-29T07:27:20;7.80;;;2.55;;
48795;SDS011;34607;48.520;-1.330;2023-07-29T07:29:47;2.65;;;1.70;;
48795;SDS011;34607;48.520;-1.330;2023-07-29T07:32:14;3.40;;;2.15;;
48795;SDS011;34607;48.520;-1.330;2023-07-29T07:34:41;4.18;;;2.00;;
48795;SDS011;34607;48.520;-1.330;2023-07-29T07:37:10;2.97;;;1.70;;
48795;SDS011;34607;48.520;-1.330;2023-07-29T07:39:37;5.88;;;2.17;;
48795;SDS011;34607;48.520;-1.330;2023-07-29T07:42:04;2.83;;;2.25;;
48795;SDS011;34607;48.520;-1.330;2023-07-29T07:44:31;3.13;;;1.83;;
48795;SDS011;34607;48.520;-1.330;2023-07-29T07:46:59;3.95;;;1.83;;
48795;SDS011;34607;48.520;-1.330;2023-07-29T07:49:25;4.10;;;1.70;;
48795;SDS011;34607;48.520;-1.330;2023-07-29T07:51:52;1.83;;;1.50;;
48795;SDS011;34607;48.520;-1.330;2023-07-29T07:54:21;2.08;;;1.40;;
48795;SDS011;34607;48.520;-1.330;2023-07-29T07:56:48;2.95;;;1.90;;
48795;SDS011;34607;48.520;-1.330;2023-07-29T07:59:15;2.88;;;1.60;;
48795;SDS011;34607;48.520;-1.330;2023-07-29T08:01:42;4.22;;;1.92;;
48795;SDS011;34607;48.520;-1.330;2023-07-29T08:04:09;3.05;;;1.42;;
48795;SDS011;34607;48.520;-1.330;2023-07-29T08:06:36;2.05;;;1.60;;
48795;SDS011;34607;48.520;-1.330;2023-07-29T08:09:03;4.75;;;1.80;;
48795;SDS011;34607;48.520;-1.330;2023-07-29T08:11:31;2.33;;;1.25;;
48795;SDS011;34607;48.520;-1.330;2023-07-29T08:13:59;2.25;;;1.42;;
48795;SDS011;34607;48.520;-1.330;2023-07-29T08:16:26;1.92;;;1.83;;
48795;SDS011;34607;48.520;-1.330;2023-07-29T08:18:53;1.85;;;1.20;;
48795;SDS011;34607;48.520;-1.330;2023-07-29T08:21:20;2.85;;;1.70;;
48795;SDS011;34607;48.520;-1.330;2023-07-29T08:23:47;2.33;;;1.58;;
48795;SDS011;34607;48.520;-1.330;2023-07-29T08:26:14;2.70;;;2.15;;
48795;SDS011;34607;48.520;-1.330;2023-07-29T08:28:43;2.78;;;1.70;;
48795;SDS011;34607;48.520;-1.330;2023-07-29T08:31:10;2.80;;;1.60;;
48795;SDS011;34607;48.520;-1.330;2023-07-29T08:33:37;3.95;;;1.65;;
48795;SDS011;34607;48.520;-1.330;2023-07-29T08:36:04;3.70;;;1.98;;
48795;SDS011;34607;48.520;-1.330;2023-07-29T08:38:31;1.27;;;1.10;;
48795;SDS011;34607;48.520;-1.330;2023-07-29T08:40:59;1.80;;;1.60;;
48795;SDS011;34607;48.520;-1.330;2023-07-29T08:43:38;3.10;;;1.23;;
48795;SDS011;34607;48.520;-1.330;2023-07-29T08:46:07;4.43;;;1.67;;
48795;SDS011;34607;48.520;-1.330;2023-07-29T08:48:36;3.78;;;1.70;;
48795;SDS011;34607;48.520;-1.330;2023-07-29T08:51:07;3.40;;;2.00;;
48795;SDS011;34607;48.520;-1.330;2023-07-29T08:53:36;4.78;;;1.83;;
48795;SDS011;34607;48.520;-1.330;2023-07-29T08:56:03;4.88;;;1.90;;
48795;SDS011;34607;48.520;-1.330;2023-07-29T08:58:31;4.40;;;1.70;;
48795;SDS011;34607;48.520;-1.330;2023-07-29T09:00:59;7.00;;;2.10;;
48795;SDS011;34607;48.520;-1.330;2023-07-29T09:03:27;5.55;;;2.35;;
48795;SDS011;34607;48.520;-1.330;2023-07-29T09:05:54;5.50;;;2.13;;
48795;SDS011;34607;48.520;-1.330;2023-07-29T09:08:24;7.10;;;2.15;;
48795;SDS011;34607;48.520;-1.330;2023-07-29T09:10:53;6.53;;;2.10;;
48795;SDS011;34607;48.520;-1.330;2023-07-29T09:13:20;5.75;;;2.08;;
48795;SDS011;34607;48.520;-1.330;2023-07-29T09:15:47;6.00;;;2.42;;
48795;SDS011;34607;48.520;-1.330;2023-07-29T09:18:15;4.00;;;1.90;;
48795;SDS011;34607;48.520;-1.330;2023-07-29T09:20:47;4.60;;;2.25;;
48795;SDS011;34607;48.520;-1.330;2023-07-29T09:23:14;3.75;;;1.75;;
48795;SDS011;34607;48.520;-1.330;2023-07-29T09:25:42;7.38;;;2.20;;
48795;SDS011;34607;48.520;-1.330;2023-07-29T09:28:10;7.85;;;2.42;;
48795;SDS011;34607;48.520;-1.330;2023-07-29T09:30:38;4.97;;;2.63;;
48795;SDS011;34607;48.520;-1.330;2023-07-29T09:33:06;5.28;;;2.42;;
48795;SDS011;34607;48.520;-1.330;2023-07-29T09:35:34;6.20;;;2.78;;
48795;SDS011;34607;48.520;-1.330;2023-07-29T09:38:03;4.50;;;2.08;;
48795;SDS011;34607;48.520;-1.330;2023-07-29T09:40:34;7.00;;;2.15;;
48795;SDS011;34607;48.520;-1.330;2023-07-29T09:43:02;9.77;;;2.63;;
48795;SDS011;34607;48.520;-1.330;2023-07-29T09:45:32;5.15;;;1.98;;
48795;SDS011;34607;48.520;-1.330;2023-07-29T09:48:00;5.70;;;2.40;;
48795;SDS011;34607;48.520;-1.330;2023-07-29T09:50:28;5.10;;;2.30;;
48795;SDS011;34607;48.520;-1.330;2023-07-29T09:52:55;9.73;;;2.47;;
48795;SDS011;34607;48.520;-1.330;2023-07-29T09:55:26;5.40;;;1.90;;
48795;SDS011;34607;48.520;-1.330;2023-07-29T09:57:53;4.28;;;1.98;;
48795;SDS011;34607;48.520;-1.330;2023-07-29T10:00:22;4.18;;;2.13;;
48795;SDS011;34607;48.520;-1.330;2023-07-29T10:02:50;4.93;;;1.95;;
48795;SDS011;34607;48.520;-1.330;2023-07-29T10:05:20;4.75;;;2.08;;
48795;SDS011;34607;48.520;-1.330;2023-07-29T10:07:48;4.50;;;1.83;;
48795;SDS011;34607;48.520;-1.330;2023-07-29T10:10:16;5.80;;;1.75;;
48795;SDS011;34607;48.520;-1.330;2023-07-29T10:12:45;4.20;;;1.77;;
48795;SDS011;34607;48.520;-1.330;2023-07-29T10:15:13;4.68;;;2.10;;
48795;SDS011;34607;48.520;-1.330;2023-07-29T10:17:40;4.25;;;1.80;;
48795;SDS011;34607;48.520;-1.330;2023-07-29T10:20:08;5.60;;;2.03;;
48795;SDS011;34607;48.520;-1.330;2023-07-29T10:22:37;4.43;;;2.05;;
48795;SDS011;34607;48.520;-1.330;2023-07-29T10:25:07;4.90;;;1.67;;
48795;SDS011;34607;48.520;-1.330;2023-07-29T10:27:40;4.88;;;2.17;;
48795;SDS011;34607;48.520;-1.330;2023-07-29T10:30:14;3.67;;;1.92;;
48795;SDS011;34607;48.520;-1.330;2023-07-29T10:32:42;5.00;;;1.98;;
48795;SDS011;34607;48.520;-1.330;2023-07-29T10:35:10;3.95;;;1.80;;
48795;SDS011;34607;48.520;-1.330;2023-07-29T10:37:37;3.70;;;2.30;;
48795;SDS011;34607;48.520;-1.330;2023-07-29T10:40:07;5.53;;;2.30;;
48795;SDS011;34607;48.520;-1.330;2023-07-29T10:42:35;6.10;;;2.30;;
48795;SDS011;34607;48.520;-1.330;2023-07-29T10:45:20;2.80;;;1.67;;
48795;SDS011;34607;48.520;-1.330;2023-07-29T10:47:48;2.75;;;1.90;;
48795;SDS011;34607;48.520;-1.330;2023-07-29T10:50:18;4.80;;;1.95;;
48795;SDS011;34607;48.520;-1.330;2023-07-29T10:52:50;5.35;;;2.10;;
48795;SDS011;34607;48.520;-1.330;2023-07-29T10:55:28;5.78;;;2.00;;
48795;SDS011;34607;48.520;-1.330;2023-07-29T10:58:06;5.10;;;1.83;;
48795;SDS011;34607;48.520;-1.330;2023-07-29T11:00:36;4.18;;;1.70;;
48795;SDS011;34607;48.520;-1.330;2023-07-29T11:03:05;5.53;;;2.03;;
48795;SDS011;34607;48.520;-1.330;2023-07-29T11:05:49;4.30;;;1.65;;
48795;SDS011;34607;48.520;-1.330;2023-07-29T11:08:18;4.85;;;1.90;;
48795;SDS011;34607;48.520;-1.330;2023-07-29T11:10:45;6.10;;;2.17;;
48795;SDS011;34607;48.520;-1.330;2023-07-29T11:13:26;4.20;;;2.28;;
48795;SDS011;34607;48.520;-1.330;2023-07-29T11:15:54;4.30;;;1.70;;
48795;SDS011;34607;48.520;-1.330;2023-07-29T11:18:25;3.05;;;1.50;;
48795;SDS011;34607;48.520;-1.330;2023-07-29T11:20:55;4.68;;;1.67;;
48795;SDS011;34607;48.520;-1.330;2023-07-29T11:23:27;4.45;;;1.70;;
48795;SDS011;34607;48.520;-1.330;2023-07-29T11:25:55;2.83;;;1.63;;
48795;SDS011;34607;48.520;-1.330;2023-07-29T11:28:23;5.13;;;1.70;;
48795;SDS011;34607;48.520;-1.330;2023-07-29T11:30:51;5.57;;;2.03;;
48795;SDS011;34607;48.520;-1.330;2023-07-29T11:33:21;7.53;;;2.55;;
48795;SDS011;34607;48.520;-1.330;2023-07-29T11:35:50;6.28;;;2.47;;
48795;SDS011;34607;48.520;-1.330;2023-07-29T11:38:17;4.47;;;2.40;;
48795;SDS011;34607;48.520;-1.330;2023-07-29T11:40:53;4.95;;;2.20;;
48795;SDS011;34607;48.520;-1.330;2023-07-29T11:43:21;5.47;;;2.10;;
48795;SDS011;34607;48.520;-1.330;2023-07-29T11:45:48;5.35;;;2.00;;
48795;SDS011;34607;48.520;-1.330;2023-07-29T11:48:15;5.28;;;1.98;;
48795;SDS011;34607;48.520;-1.330;2023-07-29T11:50:43;9.90;;;2.80;;
48795;SDS011;34607;48.520;-1.330;2023-07-29T11:53:12;5.07;;;2.33;;
48795;SDS011;34607;48.520;-1.330;2023-07-29T11:55:39;5.00;;;2.60;;
48795;SDS011;34607;48.520;-1.330;2023-07-29T11:58:06;6.13;;;2.28;;
48795;SDS011;34607;48.520;-1.330;2023-07-29T12:00:33;7.55;;;1.88;;
48795;SDS011;34607;48.520;-1.330;2023-07-29T12:03:00;1.90;;;1.52;;
48795;SDS011;34607;48.520;-1.330;2023-07-29T12:05:28;4.22;;;1.95;;
48795;SDS011;34607;48.520;-1.330;2023-07-29T12:07:57;3.90;;;2.22;;
48795;SDS011;34607;48.520;-1.330;2023-07-29T12:10:25;6.03;;;2.05;;
48795;SDS011;34607;48.520;-1.330;2023-07-29T12:12:52;4.78;;;2.35;;
48795;SDS011;34607;48.520;-1.330;2023-07-29T12:15:22;4.32;;;1.70;;
48795;SDS011;34607;48.520;-1.330;2023-07-29T12:17:52;5.82;;;2.13;;
48795;SDS011;34607;48.520;-1.330;2023-07-29T12:20:22;5.22;;;1.60;;
48795;SDS011;34607;48.520;-1.330;2023-07-29T12:22:53;6.53;;;1.75;;
48795;SDS011;34607;48.520;-1.330;2023-07-29T12:25:22;4.40;;;2.00;;
48795;SDS011;34607;48.520;-1.330;2023-07-29T12:27:49;9.90;;;2.92;;
48795;SDS011;34607;48.520;-1.330;2023-07-29T12:30:19;3.72;;;2.35;;
48795;SDS011;34607;48.520;-1.330;2023-07-29T12:32:47;9.70;;;2.45;;
48795;SDS011;34607;48.520;-1.330;2023-07-29T12:35:14;7.03;;;2.42;;
48795;SDS011;34607;48.520;-1.330;2023-07-29T12:37:42;6.38;;;2.08;;
48795;SDS011;34607;48.520;-1.330;2023-07-29T12:40:20;4.50;;;2.25;;
48795;SDS011;34607;48.520;-1.330;2023-07-29T12:42:49;6.88;;;2.50;;
48795;SDS011;34607;48.520;-1.330;2023-07-29T12:45:17;4.10;;;2.20;;
48795;SDS011;34607;48.520;-1.330;2023-07-29T12:47:44;6.25;;;2.30;;
48795;SDS011;34607;48.520;-1.330;2023-07-29T12:50:11;5.25;;;2.13;;
48795;SDS011;34607;48.520;-1.330;2023-07-29T12:52:39;6.70;;;2.13;;
48795;SDS011;34607;48.520;-1.330;2023-07-29T12:55:06;7.85;;;2.65;;
48795;SDS011;34607;48.520;-1.330;2023-07-29T12:57:41;9.50;;;2.50;;
48795;SDS011;34607;48.520;-1.330;2023-07-29T13:00:09;5.15;;;2.05;;
48795;SDS011;34607;48.520;-1.330;2023-07-29T13:02:37;4.82;;;2.33;;
48795;SDS011;34607;48.520;-1.330;2023-07-29T13:05:04;9.00;;;2.72;;
48795;SDS011;34607;48.520;-1.330;2023-07-29T13:07:32;4.32;;;1.73;;
48795;SDS011;34607;48.520;-1.330;2023-07-29T13:10:00;3.95;;;2.42;;
48795;SDS011;34607;48.520;-1.330;2023-07-29T13:12:27;5.72;;;2.47;;
48795;SDS011;34607;48.520;-1.330;2023-07-29T13:14:55;4.28;;;2.20;;
48795;SDS011;34607;48.520;-1.330;2023-07-29T13:17:22;6.18;;;2.20;;
48795;SDS011;34607;48.520;-1.330;2023-07-29T13:19:49;4.30;;;2.00;;
48795;SDS011;34607;48.520;-1.330;2023-07-29T13:22:16;5.55;;;2.30;;
48795;SDS011;34607;48.520;-1.330;2023-07-29T13:24:43;4.75;;;2.05;;
48795;SDS011;34607;48.520;-1.330;2023-07-29T13:27:10;6.57;;;2.67;;
48795;SDS011;34607;48.520;-1.330;2023-07-29T13:29:37;8.57;;;3.13;;
48795;SDS011;34607;48.520;-1.330;2023-07-29T13:32:07;5.18;;;2.28;;
48795;SDS011;34607;48.520;-1.330;2023-07-29T13:34:34;4.43;;;2.10;;
48795;SDS011;34607;48.520;-1.330;2023-07-29T13:37:01;4.90;;;2.50;;
48795;SDS011;34607;48.520;-1.330;2023-07-29T13:39:29;9.90;;;2.83;;
48795;SDS011;34607;48.520;-1.330;2023-07-29T13:41:56;5.32;;;2.45;;
48795;SDS011;34607;48.520;-1.330;2023-07-29T13:44:23;9.70;;;2.50;;
48795;SDS011;34607;48.520;-1.330;2023-07-29T13:46:50;5.25;;;2.35;;
48795;SDS011;34607;48.520;-1.330;2023-07-29T13:49:19;5.68;;;2.13;;
48795;SDS011;34607;48.520;-1.330;2023-07-29T13:51:46;6.03;;;2.42;;
48795;SDS011;34607;48.520;-1.330;2023-07-29T13:54:13;4.78;;;1.92;;
48795;SDS011;34607;48.520;-1.330;2023-07-29T13:56:40;6.18;;;2.42;;
48795;SDS011;34607;48.520;-1.330;2023-07-29T13:59:07;7.97;;;2.72;;
48795;SDS011;34607;48.520;-1.330;2023-07-29T14:01:34;6.65;;;2.88;;
48795;SDS011;34607;48.520;-1.330;2023-07-29T14:04:01;8.70;;;2.58;;
48795;SDS011;34607;48.520;-1.330;2023-07-29T14:06:30;6.70;;;2.33;;
48795;SDS011;34607;48.520;-1.330;2023-07-29T14:08:57;8.85;;;2.83;;
48795;SDS011;34607;48.520;-1.330;2023-07-29T14:11:24;11.48;;;2.70;;
48795;SDS011;34607;48.520;-1.330;2023-07-29T14:13:51;7.95;;;2.78;;
48795;SDS011;34607;48.520;-1.330;2023-07-29T14:16:18;4.28;;;2.33;;
48795;SDS011;34607;48.520;-1.330;2023-07-29T14:18:45;6.38;;;2.80;;
48795;SDS011;34607;48.520;-1.330;2023-07-29T14:21:12;4.47;;;2.05;;
48795;SDS011;34607;48.520;-1.330;2023-07-29T14:23:40;4.55;;;1.95;;
48795;SDS011;34607;48.520;-1.330;2023-07-29T14:26:07;4.97;;;2.45;;
48795;SDS011;34607;48.520;-1.330;2023-07-29T14:28:35;5.85;;;2.22;;
48795;SDS011;34607;48.520;-1.330;2023-07-29T14:31:02;3.97;;;2.45;;
48795;SDS011;34607;48.520;-1.330;2023-07-29T14:33:29;6.63;;;2.17;;
48795;SDS011;34607;48.520;-1.330;2023-07-29T14:35:56;5.30;;;3.03;;
48795;SDS011;34607;48.520;-1.330;2023-07-29T14:38:23;6.30;;;2.50;;
48795;SDS011;34607;48.520;-1.330;2023-07-29T14:40:52;11.07;;;2.42;;
48795;SDS011;34607;48.520;-1.330;2023-07-29T14:43:21;6.72;;;2.90;;
48795;SDS011;34607;48.520;-1.330;2023-07-29T14:45:49;5.90;;;2.70;;
48795;SDS011;34607;48.520;-1.330;2023-07-29T14:48:16;8.27;;;3.35;;
48795;SDS011;34607;48.520;-1.330;2023-07-29T14:50:43;9.07;;;3.00;;
48795;SDS011;34607;48.520;-1.330;2023-07-29T14:53:10;8.38;;;3.40;;
48795;SDS011;34607;48.520;-1.330;2023-07-29T14:55:37;6.22;;;2.65;;
48795;SDS011;34607;48.520;-1.330;2023-07-29T14:58:06;8.35;;;2.65;;
48795;SDS011;34607;48.520;-1.330;2023-07-29T15:00:33;6.13;;;2.55;;
48795;SDS011;34607;48.520;-1.330;2023-07-29T15:03:00;8.27;;;2.95;;
48795;SDS011;34607;48.520;-1.330;2023-07-29T15:05:27;8.55;;;2.63;;
48795;SDS011;34607;48.520;-1.330;2023-07-29T15:07:54;8.10;;;2.90;;
48795;SDS011;34607;48.520;-1.330;2023-07-29T15:10:21;8.13;;;2.90;;
48795;SDS011;34607;48.520;-1.330;2023-07-29T15:12:48;8.05;;;3.03;;
48795;SDS011;34607;48.520;-1.330;2023-07-29T15:15:17;7.85;;;2.65;;
48795;SDS011;34607;48.520;-1.330;2023-07-29T15:17:44;4.45;;;2.40;;
48795;SDS011;34607;48.520;-1.330;2023-07-29T15:20:11;3.78;;;2.40;;
48795;SDS011;34607;48.520;-1.330;2023-07-29T15:22:38;8.18;;;3.20;;
48795;SDS011;34607;48.520;-1.330;2023-07-29T15:25:08;8.52;;;3.50;;
48795;SDS011;34607;48.520;-1.330;2023-07-29T15:27:35;8.27;;;3.15;;
48795;SDS011;34607;48.520;-1.330;2023-07-29T15:30:04;5.03;;;2.15;;
48795;SDS011;34607;48.520;-1.330;2023-07-29T15:32:33;9.23;;;3.20;;
48795;SDS011;34607;48.520;-1.330;2023-07-29T15:35:00;5.88;;;2.70;;
48795;SDS011;34607;48.520;-1.330;2023-07-29T15:37:27;7.25;;;2.47;;
48795;SDS011;34607;48.520;-1.330;2023-07-29T15:39:54;9.30;;;2.83;;
48795;SDS011;34607;48.520;-1.330;2023-07-29T15:42:21;6.30;;;2.50;;
48795;SDS011;34607;48.520;-1.330;2023-07-29T15:44:48;6.25;;;2.85;;
48795;SDS011;34607;48.520;-1.330;2023-07-29T15:47:15;6.80;;;2.83;;
48795;SDS011;34607;48.520;-1.330;2023-07-29T15:49:45;6.93;;;2.50;;
48795;SDS011;34607;48.520;-1.330;2023-07-29T15:52:12;10.32;;;3.08;;
48795;SDS011;34607;48.520;-1.330;2023-07-29T15:54:40;7.38;;;2.80;;
48795;SDS011;34607;48.520;-1.330;2023-07-29T15:57:07;4.88;;;2.13;;
48795;SDS011;34607;48.520;-1.330;2023-07-29T15:59:35;6.53;;;2.80;;
48795;SDS011;34607;48.520;-1.330;2023-07-29T16:02:02;7.00;;;3.08;;
48795;SDS011;34607;48.520;-1.330;2023-07-29T16:04:29;10.77;;;3.05;;
48795;SDS011;34607;48.520;-1.330;2023-07-29T16:06:58;6.53;;;2.60;;
48795;SDS011;34607;48.520;-1.330;2023-07-29T16:09:25;8.07;;;2.78;;
48795;SDS011;34607;48.520;-1.330;2023-07-29T16:11:52;8.30;;;3.15;;
48795;SDS011;34607;48.520;-1.330;2023-07-29T16:14:19;8.25;;;2.95;;
48795;SDS011;34607;48.520;-1.330;2023-07-29T16:16:46;6.07;;;2.95;;
48795;SDS011;34607;48.520;-1.330;2023-07-29T16:19:21;4.90;;;2.60;;
48795;SDS011;34607;48.520;-1.330;2023-07-29T16:21:50;4.70;;;2.17;;
48795;SDS011;34607;48.520;-1.330;2023-07-29T16:24:18;7.30;;;2.65;;
48795;SDS011;34607;48.520;-1.330;2023-07-29T16:26:45;4.97;;;1.90;;
48795;SDS011;34607;48.520;-1.330;2023-07-29T16:29:12;4.80;;;2.10;;
48795;SDS011;34607;48.520;-1.330;2023-07-29T16:31:40;6.38;;;2.35;;
48795;SDS011;34607;48.520;-1.330;2023-07-29T16:34:07;5.30;;;2.47;;
48795;SDS011;34607;48.520;-1.330;2023-07-29T16:36:34;5.47;;;1.92;;
48795;SDS011;34607;48.520;-1.330;2023-07-29T16:39:01;2.75;;;1.77;;
48795;SDS011;34607;48.520;-1.330;2023-07-29T16:41:30;4.63;;;1.92;;
48795;SDS011;34607;48.520;-1.330;2023-07-29T16:43:57;3.75;;;2.00;;
48795;SDS011;34607;48.520;-1.330;2023-07-29T16:46:24;6.55;;;2.03;;
48795;SDS011;34607;48.520;-1.330;2023-07-29T16:48:51;2.75;;;1.83;;
48795;SDS011;34607;48.520;-1.330;2023-07-29T16:51:18;3.63;;;2.00;;
48795;SDS011;34607;48.520;-1.330;2023-07-29T16:53:45;4.32;;;1.73;;
48795;SDS011;34607;48.520;-1.330;2023-07-29T16:56:13;3.97;;;2.08;;
48795;SDS011;34607;48.520;-1.330;2023-07-29T16:58:41;6.40;;;2.22;;
48795;SDS011;34607;48.520;-1.330;2023-07-29T17:01:08;4.10;;;1.80;;
48795;SDS011;34607;48.520;-1.330;2023-07-29T17:03:35;4.50;;;1.75;;
48795;SDS011;34607;48.520;-1.330;2023-07-29T17:06:02;4.20;;;2.25;;
48795;SDS011;34607;48.520;-1.330;2023-07-29T17:08:29;4.25;;;2.00;;
48795;SDS011;34607;48.520;-1.330;2023-07-29T17:10:56;3.97;;;2.10;;
48795;SDS011;34607;48.520;-1.330;2023-07-29T17:13:24;5.47;;;2.15;;
48795;SDS011;34607;48.520;-1.330;2023-07-29T17:15:52;3.95;;;1.83;;
48795;SDS011;34607;48.520;-1.330;2023-07-29T17:18:19;4.13;;;2.28;;
48795;SDS011;34607;48.520;-1.330;2023-07-29T17:20:46;6.57;;;2.35;;
48795;SDS011;34607;48.520;-1.330;2023-07-29T17:23:13;5.82;;;1.70;;
48795;SDS011;34607;48.520;-1.330;2023-07-29T17:25:40;7.63;;;2.67;;
48795;SDS011;34607;48.520;-1.330;2023-07-29T17:28:07;7.82;;;2.55;;
48795;SDS011;34607;48.520;-1.330;2023-07-29T17:30:34;6.95;;;2.38;;
48795;SDS011;34607;48.520;-1.330;2023-07-29T17:33:03;5.25;;;1.98;;
48795;SDS011;34607;48.520;-1.330;2023-07-29T17:35:30;4.70;;;2.15;;
48795;SDS011;34607;48.520;-1.330;2023-07-29T17:37:57;4.97;;;2.03;;
48795;SDS011;34607;48.520;-1.330;2023-07-29T17:40:24;3.80;;;2.47;;
48795;SDS011;34607;48.520;-1.330;2023-07-29T17:42:51;5.20;;;1.95;;
48795;SDS011;34607;48.520;-1.330;2023-07-29T17:45:18;5.45;;;2.15;;
48795;SDS011;34607;48.520;-1.330;2023-07-29T17:47:45;9.48;;;2.47;;
48795;SDS011;34607;48.520;-1.330;2023-07-29T17:50:14;7.50;;;2.60;;
48795;SDS011;34607;48.520;-1.330;2023-07-29T17:52:41;5.88;;;2.35;;
48795;SDS011;34607;48.520;-1.330;2023-07-29T17:55:08;9.55;;;2.47;;
48795;SDS011;34607;48.520;-1.330;2023-07-29T17:57:35;6.70;;;1.80;;
48795;SDS011;34607;48.520;-1.330;2023-07-29T18:00:02;7.35;;;2.78;;
48795;SDS011;34607;48.520;-1.330;2023-07-29T18:02:31;7.85;;;2.75;;
48795;SDS011;34607;48.520;-1.330;2023-07-29T18:04:58;6.97;;;2.75;;
48795;SDS011;34607;48.520;-1.330;2023-07-29T18:07:27;5.95;;;2.00;;
48795;SDS011;34607;48.520;-1.330;2023-07-29T18:09:54;8.88;;;2.60;;
48795;SDS011;34607;48.520;-1.330;2023-07-29T18:12:21;7.20;;;2.50;;
48795;SDS011;34607;48.520;-1.330;2023-07-29T18:14:48;7.20;;;2.38;;
48795;SDS011;34607;48.520;-1.330;2023-07-29T18:17:15;6.88;;;2.10;;
48795;SDS011;34607;48.520;-1.330;2023-07-29T18:19:42;7.40;;;2.55;;
48795;SDS011;34607;48.520;-1.330;2023-07-29T18:22:09;10.45;;;2.72;;
48795;SDS011;34607;48.520;-1.330;2023-07-29T18:24:38;6.78;;;2.50;;
48795;SDS011;34607;48.520;-1.330;2023-07-29T18:27:05;5.82;;;2.90;;
48795;SDS011;34607;48.520;-1.330;2023-07-29T18:29:34;7.63;;;2.25;;
48795;SDS011;34607;48.520;-1.330;2023-07-29T18:32:01;7.22;;;2.60;;
48795;SDS011;34607;48.520;-1.330;2023-07-29T18:34:29;4.93;;;2.30;;
48795;SDS011;34607;48.520;-1.330;2023-07-29T18:36:56;6.85;;;2.85;;
48795;SDS011;34607;48.520;-1.330;2023-07-29T18:39:23;6.35;;;2.40;;
48795;SDS011;34607;48.520;-1.330;2023-07-29T18:41:51;6.97;;;2.78;;
48795;SDS011;34607;48.520;-1.330;2023-07-29T18:44:18;7.93;;;2.40;;
48795;SDS011;34607;48.520;-1.330;2023-07-29T18:46:45;7.68;;;2.95;;
48795;SDS011;34607;48.520;-1.330;2023-07-29T18:49:13;6.45;;;2.80;;
48795;SDS011;34607;48.520;-1.330;2023-07-29T18:51:40;7.60;;;3.42;;
48795;SDS011;34607;48.520;-1.330;2023-07-29T18:54:07;7.35;;;3.05;;
48795;SDS011;34607;48.520;-1.330;2023-07-29T18:56:34;9.43;;;2.80;;
48795;SDS011;34607;48.520;-1.330;2023-07-29T18:59:02;12.00;;;3.33;;
48795;SDS011;34607;48.520;-1.330;2023-07-29T19:01:29;8.35;;;2.85;;
48795;SDS011;34607;48.520;-1.330;2023-07-29T19:03:57;7.13;;;3.35;;
48795;SDS011;34607;48.520;-1.330;2023-07-29T19:06:24;8.57;;;3.03;;
48795;SDS011;34607;48.520;-1.330;2023-07-29T19:08:51;10.70;;;3.28;;
48795;SDS011;34607;48.520;-1.330;2023-07-29T19:11:18;5.65;;;2.42;;
48795;SDS011;34607;48.520;-1.330;2023-07-29T19:13:45;6.32;;;3.28;;
48795;SDS011;34607;48.520;-1.330;2023-07-29T19:16:14;6.30;;;3.03;;
48795;SDS011;34607;48.520;-1.330;2023-07-29T19:18:45;12.55;;;4.30;;
48795;SDS011;34607;48.520;-1.330;2023-07-29T19:21:13;7.13;;;3.67;;
48795;SDS011;34607;48.520;-1.330;2023-07-29T19:23:42;6.43;;;3.25;;
48795;SDS011;34607;48.520;-1.330;2023-07-29T19:26:09;8.38;;;3.35;;
48795;SDS011;34607;48.520;-1.330;2023-07-29T19:28:36;7.35;;;3.97;;
48795;SDS011;34607;48.520;-1.330;2023-07-29T19:31:03;7.15;;;3.60;;
48795;SDS011;34607;48.520;-1.330;2023-07-29T19:33:32;8.63;;;3.33;;
48795;SDS011;34607;48.520;-1.330;2023-07-29T19:35:59;7.70;;;2.92;;
48795;SDS011;34607;48.520;-1.330;2023-07-29T19:38:26;7.65;;;3.20;;
48795;SDS011;34607;48.520;-1.330;2023-07-29T19:40:53;7.72;;;3.55;;
48795;SDS011;34607;48.520;-1.330;2023-07-29T19:43:20;8.48;;;3.47;;
48795;SDS011;34607;48.520;-1.330;2023-07-29T19:45:50;14.90;;;4.22;;
48795;SDS011;34607;48.520;-1.330;2023-07-29T19:48:17;10.75;;;3.72;;
48795;SDS011;34607;48.520;-1.330;2023-07-29T19:50:45;6.95;;;3.38;;
48795;SDS011;34607;48.520;-1.330;2023-07-29T19:53:12;8.05;;;3.60;;
48795;SDS011;34607;48.520;-1.330;2023-07-29T19:55:39;7.18;;;3.95;;
48795;SDS011;34607;48.520;-1.330;2023-07-29T19:58:06;10.05;;;3.67;;
48795;SDS011;34607;48.520;-1.330;2023-07-29T20:00:34;9.57;;;3.50;;
48795;SDS011;34607;48.520;-1.330;2023-07-29T20:03:01;7.75;;;3.22;;
48795;SDS011;34607;48.520;-1.330;2023-07-29T20:05:28;7.30;;;3.28;;
48795;SDS011;34607;48.520;-1.330;2023-07-29T20:07:56;12.30;;;3.40;;
48795;SDS011;34607;48.520;-1.330;2023-07-29T20:10:23;8.77;;;3.40;;
48795;SDS011;34607;48.520;-1.330;2023-07-29T20:12:52;8.20;;;3.47;;
48795;SDS011;34607;48.520;-1.330;2023-07-29T20:15:19;11.10;;;3.58;;
48795;SDS011;34607;48.520;-1.330;2023-07-29T20:17:46;12.88;;;3.40;;
48795;SDS011;34607;48.520;-1.330;2023-07-29T20:20:13;8.80;;;3.95;;
48795;SDS011;34607;48.520;-1.330;2023-07-29T20:22:40;14.07;;;4.13;;
48795;SDS011;34607;48.520;-1.330;2023-07-29T20:25:09;9.55;;;3.25;;
48795;SDS011;34607;48.520;-1.330;2023-07-29T20:27:36;10.10;;;3.45;;
48795;SDS011;34607;48.520;-1.330;2023-07-29T20:30:03;11.07;;;3.05;;
48795;SDS011;34607;48.520;-1.330;2023-07-29T20:32:31;5.78;;;2.97;;
48795;SDS011;34607;48.520;-1.330;2023-07-29T20:34:59;9.98;;;4.57;;
48795;SDS011;34607;48.520;-1.330;2023-07-29T20:37:26;7.95;;;3.25;;
48795;SDS011;34607;48.520;-1.330;2023-07-29T20:39:53;9.70;;;4.10;;
48795;SDS011;34607;48.520;-1.330;2023-07-29T20:42:21;10.32;;;3.90;;
48795;SDS011;34607;48.520;-1.330;2023-07-29T20:44:48;9.50;;;3.72;;
48795;SDS011;34607;48.520;-1.330;2023-07-29T20:47:15;6.07;;;2.90;;
48795;SDS011;34607;48.520;-1.330;2023-07-29T20:49:43;7.93;;;3.58;;
48795;SDS011;34607;48.520;-1.330;2023-07-29T20:52:11;10.93;;;3.78;;
48795;SDS011;34607;48.520;-1.330;2023-07-29T20:54:38;11.20;;;4.05;;
48795;SDS011;34607;48.520;-1.330;2023-07-29T20:57:05;11.85;;;3.60;;
48795;SDS011;34607;48.520;-1.330;2023-07-29T20:59:35;10.18;;;4.18;;
48795;SDS011;34607;48.520;-1.330;2023-07-29T21:02:02;13.60;;;4.18;;
